Acworth, Georgia
Current Conditions -  °F | °C
As of 11:47 AM on Tuesday 21 Oct 2014 (Local Time) from KRYY Reporting Station
Clear Clear  
Wind Chill: 64°   Ceiling: Unl
Heat Index: 64°   Visibility: 10mi
Dew Point: 48°   Wind: 8mph
Humidity: 56%   Direction: 290°WNW
Pressure: 30.06"   Gusts: NA
Location:  34.06°N, 84.68°W
Report Text: KRYY 211547Z 29007KT 10SM SKC 18/09 A3006
Loading
Personal Weather Stations






























Interactive Weather Map
Tropical Storm Tracking
New forecast layout! Learn more

10-Day Weather Forecast

Advertisements
Track Severe Weather on mobile